createdAt,value
2018-09-03T00:00:29.739Z,9.38
2018-09-03T00:02:58.450Z,9.13
2018-09-03T00:05:27.197Z,10.32
2018-09-03T00:07:55.931Z,9.95
2018-09-03T00:10:24.635Z,9.58
2018-09-03T00:12:53.468Z,10.40
2018-09-03T00:15:22.213Z,9.85
2018-09-03T00:17:50.940Z,10.58
2018-09-03T00:20:19.687Z,9.65
2018-09-03T00:22:48.373Z,12.20
2018-09-03T00:25:17.237Z,10.38
2018-09-03T00:27:45.923Z,11.85
2018-09-03T00:30:14.649Z,11.50
2018-09-03T00:32:48.694Z,11.08
2018-09-03T00:35:22.720Z,12.23
2018-09-03T00:37:56.604Z,12.53
2018-09-03T00:40:30.681Z,12.53
2018-09-03T00:43:04.532Z,12.20
2018-09-03T00:45:38.638Z,11.38
2018-09-03T00:48:07.410Z,12.03
2018-09-03T00:50:36.119Z,13.22
2018-09-03T00:53:04.913Z,12.63
2018-09-03T00:55:33.586Z,14.03
2018-09-03T00:58:02.376Z,12.50
2018-09-03T01:00:31.144Z,11.03
2018-09-03T01:02:59.838Z,12.63
2018-09-03T01:05:28.617Z,13.62
2018-09-03T01:07:57.529Z,12.65
2018-09-03T01:10:26.233Z,12.45
2018-09-03T01:12:59.617Z,13.65
2018-09-03T01:15:32.852Z,12.95
2018-09-03T01:18:05.191Z,12.07
2018-09-03T01:20:39.864Z,12.93
2018-09-03T01:23:13.409Z,14.10
2018-09-03T01:25:46.873Z,12.35
2018-09-03T01:28:22.069Z,13.98
2018-09-03T01:30:54.702Z,14.53
2018-09-03T01:33:23.439Z,12.90
2018-09-03T01:35:52.223Z,13.18
2018-09-03T01:38:20.954Z,14.85
2018-09-03T01:40:49.734Z,13.10
2018-09-03T01:43:18.558Z,13.08
2018-09-03T01:45:47.228Z,13.08
2018-09-03T01:48:15.928Z,15.10
2018-09-03T01:50:44.636Z,14.10
2018-09-03T01:53:13.325Z,15.50
2018-09-03T01:55:42.033Z,15.78
2018-09-03T01:58:10.837Z,15.30
2018-09-03T02:00:39.548Z,16.93
2018-09-03T02:03:08.308Z,13.40
2018-09-03T02:05:37.024Z,15.40
2018-09-03T02:08:05.746Z,15.93
2018-09-03T02:10:34.474Z,15.65
2018-09-03T02:13:03.158Z,14.65
2018-09-03T02:15:31.912Z,15.55
2018-09-03T02:18:00.674Z,14.45
2018-09-03T02:20:29.368Z,15.48
2018-09-03T02:22:58.050Z,14.43
2018-09-03T02:25:26.840Z,15.23
2018-09-03T02:27:55.556Z,16.20
2018-09-03T02:30:24.276Z,13.93
2018-09-03T02:32:53.201Z,17.02
2018-09-03T02:35:21.897Z,15.30
2018-09-03T02:37:50.949Z,15.30
2018-09-03T02:40:19.685Z,17.75
2018-09-03T02:42:48.459Z,15.43
2018-09-03T02:45:17.171Z,16.75
2018-09-03T02:47:45.945Z,16.57
2018-09-03T02:50:14.704Z,17.12
2018-09-03T02:52:43.426Z,16.32
2018-09-03T02:55:12.215Z,15.05
2018-09-03T02:57:40.918Z,17.92
2018-09-03T03:00:09.779Z,17.35
2018-09-03T03:02:38.573Z,16.35
2018-09-03T03:05:07.409Z,18.57
2018-09-03T03:07:36.128Z,16.65
2018-09-03T03:10:05.093Z,16.27
2018-09-03T03:12:33.770Z,16.55
2018-09-03T03:15:02.512Z,15.15
2018-09-03T03:17:31.224Z,17.40
2018-09-03T03:19:59.935Z,17.37
2018-09-03T03:22:28.663Z,18.82
2018-09-03T03:24:57.372Z,18.32
2018-09-03T03:27:26.076Z,17.77
2018-09-03T03:29:54.736Z,16.77
2018-09-03T03:32:23.412Z,18.30
2018-09-03T03:34:52.161Z,20.20
2018-09-03T03:37:20.877Z,20.17
2018-09-03T03:39:49.587Z,20.85
2018-09-03T03:42:18.336Z,18.82
2018-09-03T03:44:47.010Z,20.30
2018-09-03T03:47:15.742Z,19.75
2018-09-03T03:49:44.469Z,20.68
2018-09-03T03:52:13.201Z,19.57
2018-09-03T03:54:41.916Z,20.57
2018-09-03T03:57:10.632Z,18.23
2018-09-03T03:59:39.329Z,18.92
2018-09-03T04:02:08.052Z,21.23
2018-09-03T04:04:36.798Z,20.50
2018-09-03T04:07:05.537Z,19.90
2018-09-03T04:09:34.317Z,19.70
2018-09-03T04:12:03.045Z,21.87
2018-09-03T04:14:31.691Z,21.12
2018-09-03T04:17:00.396Z,20.45
2018-09-03T04:19:29.087Z,20.55
2018-09-03T04:21:57.800Z,19.10
2018-09-03T04:24:26.475Z,19.25
2018-09-03T04:26:55.186Z,20.62
2018-09-03T04:29:23.941Z,22.10
2018-09-03T04:31:52.618Z,19.75
2018-09-03T04:34:21.346Z,22.55
2018-09-03T04:36:50.113Z,19.87
2018-09-03T04:39:18.854Z,21.42
2018-09-03T04:41:47.584Z,21.23
2018-09-03T04:44:16.332Z,20.95
2018-09-03T04:46:45.057Z,21.50
2018-09-03T04:49:13.867Z,21.42
2018-09-03T04:51:42.670Z,21.75
2018-09-03T04:54:11.420Z,21.10
2018-09-03T04:56:40.100Z,21.73
2018-09-03T04:59:08.861Z,22.45
2018-09-03T05:01:37.528Z,21.75
2018-09-03T05:04:06.289Z,23.15
2018-09-03T05:06:35.167Z,21.97
2018-09-03T05:09:04.456Z,21.90
2018-09-03T05:11:33.161Z,19.50
2018-09-03T05:14:01.908Z,21.05
2018-09-03T05:16:30.833Z,21.60
2018-09-03T05:18:59.512Z,22.45
2018-09-03T05:21:28.301Z,20.35
2018-09-03T05:23:56.953Z,20.80
2018-09-03T05:26:25.713Z,22.17
2018-09-03T05:28:54.462Z,20.50
2018-09-03T05:31:23.206Z,21.95
2018-09-03T05:33:51.968Z,21.57
2018-09-03T05:36:20.674Z,20.97
2018-09-03T05:38:49.394Z,22.10
2018-09-03T05:41:18.080Z,22.37
2018-09-03T05:43:46.881Z,21.57
2018-09-03T05:46:15.573Z,22.17
2018-09-03T05:48:44.304Z,23.32
2018-09-03T05:51:13.040Z,21.20
2018-09-03T05:53:41.801Z,22.48
2018-09-03T05:56:10.588Z,23.67
2018-09-03T05:58:39.360Z,22.00
2018-09-03T06:01:08.048Z,23.38
2018-09-03T06:03:36.789Z,22.58
2018-09-03T06:06:05.547Z,22.37
2018-09-03T06:08:34.273Z,21.97
2018-09-03T06:11:03.092Z,24.37
2018-09-03T06:13:31.807Z,23.15
2018-09-03T06:16:00.515Z,22.73
2018-09-03T06:18:29.694Z,23.73
2018-09-03T06:20:58.595Z,21.90
2018-09-03T06:23:27.349Z,22.58
2018-09-03T06:25:56.138Z,25.17
2018-09-03T06:28:24.833Z,24.05
2018-09-03T06:30:53.554Z,22.35
2018-09-03T06:33:22.310Z,23.00
2018-09-03T06:35:51.072Z,22.95
2018-09-03T06:38:19.923Z,22.75
2018-09-03T06:40:48.683Z,23.55
2018-09-03T06:43:17.447Z,22.85
2018-09-03T06:45:47.264Z,22.65
2018-09-03T06:48:16.730Z,22.32
2018-09-03T06:50:45.629Z,22.98
2018-09-03T06:53:17.083Z,24.50
2018-09-03T06:55:46.316Z,24.67
2018-09-03T06:58:15.169Z,23.38
2018-09-03T07:00:44.331Z,23.35
2018-09-03T07:03:13.151Z,23.20
2018-09-03T07:05:41.940Z,24.10
2018-09-03T07:08:10.817Z,23.67
2018-09-03T07:10:39.731Z,23.60
2018-09-03T07:13:08.493Z,23.50
2018-09-03T07:15:37.759Z,23.77
2018-09-03T07:18:06.686Z,23.50
2018-09-03T07:20:35.866Z,22.27
2018-09-03T07:23:04.684Z,24.35
2018-09-03T07:25:33.572Z,21.82
2018-09-03T07:28:02.292Z,20.43
2018-09-03T07:30:30.985Z,19.50
2018-09-03T07:32:59.733Z,19.25
2018-09-03T07:35:28.488Z,19.80
2018-09-03T07:37:57.148Z,20.80
2018-09-03T07:40:26.153Z,17.30
2018-09-03T07:42:55.746Z,17.85
2018-09-03T07:45:25.042Z,19.55
2018-09-03T07:47:53.812Z,17.55
2018-09-03T07:50:22.526Z,20.67
2018-09-03T07:52:51.412Z,19.27
2018-09-03T07:55:20.532Z,20.25
2018-09-03T07:57:49.266Z,19.65
2018-09-03T08:00:18.094Z,19.23
2018-09-03T08:02:46.905Z,18.67
2018-09-03T08:05:16.130Z,19.30
2018-09-03T08:07:44.977Z,19.20
2018-09-03T08:10:15.244Z,17.90
2018-09-03T08:13:06.373Z,16.27
2018-09-03T08:15:35.815Z,17.10
2018-09-03T08:18:04.612Z,15.30
2018-09-03T08:20:33.430Z,15.03
2018-09-03T08:23:02.231Z,14.00
2018-09-03T08:25:31.061Z,14.63
2018-09-03T08:27:59.818Z,16.03
2018-09-03T08:30:28.601Z,14.10
2018-09-03T08:32:57.407Z,15.90
2018-09-03T08:35:26.604Z,13.53
2018-09-03T08:37:55.374Z,16.23
2018-09-03T08:40:24.085Z,17.90
2018-09-03T08:42:52.814Z,17.80
2018-09-03T08:45:22.050Z,18.30
2018-09-03T08:47:50.785Z,18.23
2018-09-03T08:50:19.586Z,17.93
2018-09-03T08:52:48.470Z,20.43
2018-09-03T08:55:17.394Z,19.00
2018-09-03T08:57:46.192Z,17.87
2018-09-03T09:00:15.045Z,16.80
2018-09-03T09:02:43.918Z,18.93
2018-09-03T09:05:12.803Z,17.70
2018-09-03T09:07:41.689Z,18.90
2018-09-03T09:10:10.472Z,18.33
2018-09-03T09:12:39.813Z,17.37
2018-09-03T09:15:08.697Z,20.33
2018-09-03T09:17:37.509Z,19.77
2018-09-03T09:20:06.367Z,24.10
2018-09-03T09:22:35.433Z,29.40
2018-09-03T09:25:04.318Z,30.70
2018-09-03T09:27:33.142Z,24.07
2018-09-03T09:30:02.024Z,25.07
2018-09-03T09:32:30.775Z,27.00
2018-09-03T09:34:59.648Z,24.20
2018-09-03T09:37:28.557Z,25.53
2018-09-03T09:39:57.335Z,25.60
2018-09-03T09:42:26.174Z,22.70
2018-09-03T09:44:54.952Z,24.70
2018-09-03T09:47:23.906Z,21.60
2018-09-03T09:49:52.804Z,19.33
2018-09-03T09:52:21.649Z,19.00
2018-09-03T09:54:50.627Z,17.90
2018-09-03T09:57:19.359Z,19.00
2018-09-03T09:59:48.197Z,19.00
2018-09-03T10:02:17.026Z,17.33
2018-09-03T10:04:45.786Z,17.73
2018-09-03T10:07:14.527Z,16.83
2018-09-03T10:09:43.412Z,17.13
2018-09-03T10:12:12.185Z,17.60
2018-09-03T10:14:40.976Z,17.53
2018-09-03T10:17:09.807Z,16.50
2018-09-03T10:19:38.562Z,18.10
2018-09-03T10:22:07.401Z,19.47
2018-09-03T10:24:36.149Z,16.37
2018-09-03T10:27:05.042Z,14.70
2018-09-03T10:29:33.921Z,15.17
2018-09-03T10:32:04.579Z,15.53
2018-09-03T10:34:33.364Z,15.97
2018-09-03T10:37:02.292Z,16.77
2018-09-03T10:39:31.067Z,15.83
2018-09-03T10:41:59.958Z,16.50
2018-09-03T10:44:29.122Z,16.30
2018-09-03T10:46:58.025Z,17.73
2018-09-03T10:49:27.141Z,17.07
2018-09-03T10:51:56.069Z,15.90
2018-09-03T10:54:24.844Z,14.50
2018-09-03T10:56:54.034Z,17.70
2018-09-03T10:59:22.823Z,17.30
2018-09-03T11:01:51.574Z,15.17
2018-09-03T11:04:20.275Z,16.80
2018-09-03T11:06:51.296Z,14.90
2018-09-03T11:09:20.054Z,13.80
2018-09-03T11:11:48.906Z,17.30
2018-09-03T11:14:17.748Z,16.23
2018-09-03T11:16:46.681Z,16.93
2018-09-03T11:19:15.907Z,16.03
2018-09-03T11:21:44.792Z,17.37
2018-09-03T11:24:14.182Z,16.63
2018-09-03T11:26:44.611Z,16.30
2018-09-03T11:29:13.483Z,16.07
2018-09-03T11:31:42.340Z,16.60
2018-09-03T11:34:11.269Z,16.30
2018-09-03T11:36:40.050Z,14.60
2018-09-03T11:39:11.215Z,17.37
2018-09-03T11:41:40.151Z,17.47
2018-09-03T11:44:09.129Z,16.20
2018-09-03T11:46:37.982Z,14.97
2018-09-03T11:49:07.143Z,18.30
2018-09-03T11:51:35.934Z,15.97
2018-09-03T11:54:04.757Z,15.33
2018-09-03T11:56:33.492Z,17.60
2018-09-03T11:59:02.457Z,17.43
2018-09-03T12:01:31.327Z,16.57
2018-09-03T12:04:00.103Z,15.90
2018-09-03T12:06:28.839Z,15.50
2018-09-03T12:08:57.608Z,17.60
2018-09-03T12:11:26.506Z,17.07
2018-09-03T12:13:55.393Z,15.40
2018-09-03T12:16:26.901Z,16.13
2018-09-03T12:18:57.526Z,14.40
2018-09-03T12:21:26.337Z,14.73
2018-09-03T12:23:55.176Z,14.30
2018-09-03T12:26:23.973Z,14.20
2018-09-03T12:28:52.916Z,12.13
2018-09-03T12:31:21.769Z,15.17
2018-09-03T12:33:50.568Z,13.67
2018-09-03T12:36:19.785Z,14.50
2018-09-03T12:38:48.845Z,14.00
2018-09-03T12:41:17.705Z,14.23
2018-09-03T12:43:46.516Z,13.20
2018-09-03T12:46:15.413Z,14.63
2018-09-03T12:48:44.205Z,16.80
2018-09-03T12:51:13.985Z,13.97
2018-09-03T12:53:42.757Z,14.50
2018-09-03T12:56:11.602Z,14.20
2018-09-03T12:58:40.537Z,11.60
2018-09-03T13:01:09.259Z,12.47
2018-09-03T13:03:38.108Z,13.30
2018-09-03T13:06:06.936Z,13.30
2018-09-03T13:08:35.615Z,11.47
2018-09-03T13:11:04.593Z,12.03
2018-09-03T13:13:33.525Z,10.47
2018-09-03T13:16:02.436Z,12.93
2018-09-03T13:18:31.242Z,11.20
2018-09-03T13:20:59.981Z,11.70
2018-09-03T13:23:28.814Z,11.30
2018-09-03T13:25:57.610Z,10.27
2018-09-03T13:28:26.461Z,11.10
2018-09-03T13:30:55.417Z,10.90
2018-09-03T13:33:24.101Z,12.13
2018-09-03T13:35:52.911Z,12.00
2018-09-03T13:38:21.825Z,9.93
2018-09-03T13:40:50.680Z,10.43
2018-09-03T13:43:19.723Z,9.70
2018-09-03T13:45:48.505Z,10.17
2018-09-03T13:48:22.884Z,10.13
2018-09-03T13:50:51.667Z,10.90
2018-09-03T13:53:20.412Z,12.00
2018-09-03T13:55:49.224Z,9.23
2018-09-03T13:58:18.039Z,10.07
2018-09-03T14:00:46.778Z,9.47
2018-09-03T14:03:15.689Z,9.77
2018-09-03T14:05:44.508Z,8.70
2018-09-03T14:08:13.297Z,8.73
2018-09-03T14:10:42.093Z,11.00
2018-09-03T14:13:11.489Z,9.80
2018-09-03T14:15:41.567Z,10.10
2018-09-03T14:18:11.198Z,9.20
2018-09-03T14:20:41.804Z,8.83
2018-09-03T14:23:12.877Z,9.10
2018-09-03T14:25:48.324Z,9.70
2018-09-03T14:28:17.099Z,9.10
2018-09-03T14:30:45.940Z,7.77
2018-09-03T14:33:14.832Z,7.93
2018-09-03T14:35:43.674Z,7.60
2018-09-03T14:38:12.439Z,7.20
2018-09-03T14:40:41.318Z,8.10
2018-09-03T14:43:10.137Z,8.77
2018-09-03T14:45:38.888Z,7.57
2018-09-03T14:48:07.641Z,7.10
2018-09-03T14:50:36.409Z,6.97
2018-09-03T14:53:05.253Z,7.00
2018-09-03T14:55:34.009Z,7.03
2018-09-03T14:58:02.799Z,8.00
2018-09-03T15:00:31.653Z,6.77
2018-09-03T15:03:00.358Z,7.90
2018-09-03T15:05:29.097Z,7.80
2018-09-03T15:07:57.876Z,7.03
2018-09-03T15:10:26.649Z,9.13
2018-09-03T15:12:55.613Z,7.90
2018-09-03T15:15:24.396Z,7.20
2018-09-03T15:17:53.227Z,8.23
2018-09-03T15:20:24.457Z,7.87
2018-09-03T15:23:03.009Z,8.57
2018-09-03T15:25:35.983Z,9.03
2018-09-03T15:28:05.457Z,6.83
2018-09-03T15:30:34.235Z,8.83
2018-09-03T15:33:03.040Z,8.30
2018-09-03T15:35:31.846Z,9.20
2018-09-03T15:38:00.598Z,8.50
2018-09-03T15:40:31.171Z,8.80
2018-09-03T15:43:01.430Z,8.87
2018-09-03T15:45:32.224Z,8.50
2018-09-03T15:48:06.100Z,7.93
2018-09-03T15:50:36.712Z,7.30
2018-09-03T15:53:07.187Z,7.60
2018-09-03T15:55:38.798Z,8.30
2018-09-03T15:58:07.551Z,7.83
2018-09-03T16:00:36.288Z,7.53
2018-09-03T16:03:05.098Z,9.63
2018-09-03T16:05:33.819Z,8.07
2018-09-03T16:08:02.552Z,8.83
2018-09-03T16:10:31.393Z,9.50
2018-09-03T16:13:00.126Z,8.93
2018-09-03T16:15:28.961Z,8.57
2018-09-03T16:17:57.781Z,9.93
2018-09-03T16:20:26.566Z,9.10
2018-09-03T16:22:55.300Z,8.93
2018-09-03T16:25:24.026Z,8.77
2018-09-03T16:27:52.928Z,10.00
2018-09-03T16:30:21.565Z,10.20
2018-09-03T16:32:51.444Z,11.70
2018-09-03T16:35:20.143Z,10.87
2018-09-03T16:37:48.951Z,11.90
2018-09-03T16:40:17.625Z,11.37
2018-09-03T16:42:46.396Z,10.87
2018-09-03T16:45:15.181Z,10.97
2018-09-03T16:47:43.901Z,10.83
2018-09-03T16:50:12.771Z,10.60
2018-09-03T16:52:41.542Z,11.83
2018-09-03T16:55:10.288Z,10.90
2018-09-03T16:57:39.121Z,11.13
2018-09-03T17:00:07.845Z,10.20
2018-09-03T17:02:37.585Z,11.43
2018-09-03T17:05:06.314Z,10.43
2018-09-03T17:07:37.003Z,10.47
2018-09-03T17:10:05.726Z,11.37
2018-09-03T17:12:34.910Z,11.70
2018-09-03T17:15:03.765Z,11.60
2018-09-03T17:17:32.503Z,12.00
2018-09-03T17:20:01.289Z,12.53
2018-09-03T17:22:30.049Z,10.37
2018-09-03T17:24:59.891Z,10.10
2018-09-03T17:27:29.306Z,11.40
2018-09-03T17:29:58.766Z,11.77
2018-09-03T17:32:27.838Z,10.40
2018-09-03T17:34:57.300Z,10.50
2018-09-03T17:37:26.511Z,10.40
2018-09-03T17:39:55.504Z,10.83
2018-09-03T17:42:24.653Z,9.13
2018-09-03T17:44:53.551Z,10.63
2018-09-03T17:47:22.248Z,11.43
2018-09-03T17:49:51.017Z,11.93
2018-09-03T17:52:19.731Z,9.83
2018-09-03T17:54:48.401Z,11.10
2018-09-03T17:57:17.166Z,12.83
2018-09-03T17:59:45.943Z,10.03
2018-09-03T18:02:14.839Z,9.30
2018-09-03T18:04:43.764Z,9.80
2018-09-03T18:07:12.485Z,10.47
2018-09-03T18:09:41.261Z,11.37
2018-09-03T18:12:10.175Z,11.13
2018-09-03T18:14:38.861Z,10.37
2018-09-03T18:17:07.584Z,11.50
2018-09-03T18:19:36.357Z,10.83
2018-09-03T18:22:05.047Z,11.83
2018-09-03T18:24:33.785Z,10.73
2018-09-03T18:27:02.493Z,11.50
2018-09-03T18:29:31.251Z,9.60
2018-09-03T18:31:59.993Z,10.30
2018-09-03T18:34:28.767Z,11.10
2018-09-03T18:36:57.558Z,10.97
2018-09-03T18:39:26.289Z,11.00
2018-09-03T18:41:55.102Z,11.50
2018-09-03T18:44:23.849Z,10.90
2018-09-03T18:46:52.636Z,10.00
2018-09-03T18:49:21.342Z,9.20
2018-09-03T18:51:50.104Z,12.13
2018-09-03T18:54:18.856Z,11.23
2018-09-03T18:56:47.543Z,12.53
2018-09-03T18:59:16.273Z,11.80
2018-09-03T19:01:45.046Z,11.53
2018-09-03T19:04:13.809Z,11.20
2018-09-03T19:06:42.562Z,10.60
2018-09-03T19:09:11.317Z,11.57
2018-09-03T19:11:40.094Z,11.93
2018-09-03T19:14:09.209Z,11.63
2018-09-03T19:16:37.972Z,11.90
2018-09-03T19:19:06.747Z,11.83
2018-09-03T19:21:35.547Z,12.10
2018-09-03T19:24:04.340Z,10.77
2018-09-03T19:26:33.058Z,11.90
2018-09-03T19:29:01.738Z,12.00
2018-09-03T19:31:30.479Z,10.67
2018-09-03T19:33:59.205Z,10.50
2018-09-03T19:36:28.133Z,11.03
2018-09-03T19:38:56.892Z,11.83
2018-09-03T19:41:25.657Z,12.10
2018-09-03T19:43:54.358Z,10.43
2018-09-03T19:46:23.079Z,11.97
2018-09-03T19:48:51.837Z,12.23
2018-09-03T19:51:20.780Z,11.73
2018-09-03T19:53:49.545Z,11.60
2018-09-03T19:56:18.432Z,10.93
2018-09-03T19:58:47.177Z,11.47
2018-09-03T20:01:15.894Z,10.20
2018-09-03T20:03:49.203Z,11.50
2018-09-03T20:06:21.471Z,10.90
2018-09-03T20:08:54.589Z,10.30
2018-09-03T20:11:28.415Z,11.50
2018-09-03T20:14:01.808Z,10.63
2018-09-03T20:16:34.230Z,11.10
2018-09-03T20:19:06.921Z,11.20
2018-09-03T20:21:39.558Z,10.63
2018-09-03T20:24:11.963Z,10.43
2018-09-03T20:26:45.255Z,10.70
2018-09-03T20:29:17.391Z,10.53
2018-09-03T20:31:50.125Z,10.90
2018-09-03T20:34:23.004Z,11.50
2018-09-03T20:36:55.483Z,11.20
2018-09-03T20:39:24.209Z,11.43
2018-09-03T20:41:52.950Z,12.17
2018-09-03T20:44:21.698Z,10.30
2018-09-03T20:46:50.488Z,12.30
2018-09-03T20:49:19.258Z,10.90
2018-09-03T20:51:48.180Z,11.00
2018-09-03T20:54:16.886Z,12.40
2018-09-03T20:56:45.676Z,11.33
2018-09-03T20:59:14.386Z,10.70
2018-09-03T21:01:43.175Z,11.43
2018-09-03T21:04:12.038Z,12.47
2018-09-03T21:06:40.866Z,10.70
2018-09-03T21:09:09.651Z,11.90
2018-09-03T21:11:38.458Z,10.90
2018-09-03T21:14:07.557Z,11.97
2018-09-03T21:16:36.336Z,10.70
2018-09-03T21:19:05.222Z,10.97
2018-09-03T21:21:33.978Z,11.43
2018-09-03T21:24:02.875Z,11.00
2018-09-03T21:26:31.561Z,11.20
2018-09-03T21:29:00.378Z,9.20
2018-09-03T21:31:29.156Z,11.22
2018-09-03T21:33:58.019Z,11.93
2018-09-03T21:36:26.834Z,11.27
2018-09-03T21:38:55.599Z,9.83
2018-09-03T21:41:24.435Z,11.00
2018-09-03T21:43:53.316Z,10.30
2018-09-03T21:46:22.159Z,10.60
2018-09-03T21:48:50.986Z,10.77
2018-09-03T21:51:19.769Z,11.40
2018-09-03T21:53:48.553Z,11.10
2018-09-03T21:56:17.313Z,11.37
2018-09-03T21:58:46.110Z,9.57
2018-09-03T22:01:15.023Z,10.50
2018-09-03T22:03:43.776Z,9.87
2018-09-03T22:06:13.589Z,10.60
2018-09-03T22:08:42.435Z,11.63
2018-09-03T22:11:11.268Z,11.07
2018-09-03T22:13:39.986Z,12.10
2018-09-03T22:16:09.343Z,11.80
2018-09-03T22:18:39.212Z,10.17
2018-09-03T22:21:08.192Z,11.30
2018-09-03T22:23:37.757Z,12.37
2018-09-03T22:26:06.629Z,11.37
2018-09-03T22:28:35.772Z,9.93
2018-09-03T22:31:04.849Z,10.60
2018-09-03T22:33:33.582Z,10.80
2018-09-03T22:36:02.357Z,12.50
2018-09-03T22:38:32.079Z,11.03
2018-09-03T22:41:00.842Z,9.88
2018-09-03T22:43:29.622Z,10.82
2018-09-03T22:45:58.409Z,10.63
2018-09-03T22:48:27.150Z,11.18
2018-09-03T22:50:55.934Z,10.97
2018-09-03T22:53:24.752Z,11.60
2018-09-03T22:55:53.535Z,11.43
2018-09-03T22:58:22.326Z,12.70
2018-09-03T23:00:51.130Z,11.63
2018-09-03T23:03:19.879Z,13.10
2018-09-03T23:05:48.721Z,12.45
2018-09-03T23:08:17.459Z,12.78
2018-09-03T23:10:46.234Z,11.48
2018-09-03T23:13:15.023Z,11.08
2018-09-03T23:15:49.251Z,11.20
2018-09-03T23:18:18.070Z,11.50
2018-09-03T23:20:46.985Z,12.20
2018-09-03T23:23:15.821Z,12.15
2018-09-03T23:25:44.713Z,12.07
2018-09-03T23:28:13.503Z,11.00
2018-09-03T23:30:42.645Z,11.65
2018-09-03T23:33:11.945Z,11.63
2018-09-03T23:35:40.773Z,11.83
2018-09-03T23:38:09.594Z,11.93
2018-09-03T23:40:38.478Z,10.65
2018-09-03T23:43:07.262Z,11.70
2018-09-03T23:45:36.089Z,12.00
2018-09-03T23:48:05.014Z,11.50
2018-09-03T23:50:33.757Z,11.60
2018-09-03T23:53:02.561Z,10.82
2018-09-03T23:55:31.405Z,11.35
2018-09-03T23:58:00.113Z,10.95
